Time;durP1;ratioP1;P1;durP2;ratioP2;P2;SDS_P1;SDS_P2;PMS_P1;PMS_P2;Temp;Humidity;BMP_temperature;BMP_pressure;BME280_temperature;BME280_humidity;BME280_pressure;Samples;Min_cycle;Max_cycle;Signal;HPM_P1;HPM_P2
2022/10/15 00:00:29;;;;;;;64.90;32.60;;;;;;;19.21;100.00;100608.19;4996804;28;20054;-51
2022/10/15 00:02:55;;;;;;;65.65;32.22;;;;;;;19.11;100.00;100605.38;5003907;28;20035;-54
2022/10/15 00:05:21;;;;;;;71.67;33.80;;;;;;;19.07;100.00;100605.09;5003927;28;20042;-52
2022/10/15 00:07:47;;;;;;;73.15;32.97;;;;;;;19.03;100.00;100602.06;4997736;28;20045;-53
2022/10/15 00:10:13;;;;;;;68.32;31.23;;;;;;;18.75;100.00;100595.00;4992903;28;20125;-55
2022/10/15 00:12:40;;;;;;;70.20;33.40;;;;;;;18.91;100.00;100588.66;5004463;28;20028;-52
2022/10/15 00:15:06;;;;;;;70.47;34.57;;;;;;;19.09;100.00;100594.81;5018321;28;20030;-51
2022/10/15 00:17:35;;;;;;;69.20;33.03;;;;;;;18.80;100.00;100591.53;5012517;28;20277;-52
2022/10/15 00:20:03;;;;;;;74.00;34.57;;;;;;;18.68;100.00;100592.50;5002976;28;20038;-51
2022/10/15 00:22:29;;;;;;;71.30;33.07;;;;;;;18.84;100.00;100589.94;4999347;28;20269;-50
2022/10/15 00:24:54;;;;;;;71.40;33.57;;;;;;;18.89;100.00;100593.53;5004095;28;20300;-50
2022/10/15 00:27:20;;;;;;;66.78;33.38;;;;;;;19.03;100.00;100590.41;5001078;28;20042;-49
2022/10/15 00:29:45;;;;;;;74.40;33.85;;;;;;;19.10;100.00;100592.91;5011811;28;20032;-53
2022/10/15 00:32:11;;;;;;;74.50;35.20;;;;;;;19.28;100.00;100583.56;5009752;28;20039;-52
2022/10/15 00:34:37;;;;;;;73.40;34.20;;;;;;;19.11;100.00;100583.69;5004159;28;20277;-52
2022/10/15 00:37:04;;;;;;;;;;;;;;;19.30;100.00;100584.13;5052559;28;20264;-51
2022/10/15 00:39:29;;;;;;;71.97;33.00;;;;;;;19.35;100.00;100592.28;5004094;28;19921;-55
2022/10/15 00:41:55;;;;;;;81.93;37.30;;;;;;;19.14;100.00;100586.72;5011624;28;20109;-53
2022/10/15 00:44:20;;;;;;;81.53;35.57;;;;;;;19.24;100.00;100590.56;4994690;28;20058;-54
2022/10/15 00:47:10;;;;;;;74.63;36.73;;;;;;;19.19;100.00;100588.66;5007581;28;20333;-52
2022/10/15 00:49:41;;;;;;;76.80;36.67;;;;;;;19.33;100.00;100589.81;5002608;28;20388;-53
2022/10/15 00:52:11;;;;;;;78.20;38.57;;;;;;;18.90;100.00;100583.47;5009727;28;20294;-49
2022/10/15 00:54:41;;;;;;;78.57;37.33;;;;;;;18.96;100.00;100590.59;5004469;28;20315;-50
2022/10/15 00:57:08;;;;;;;83.77;39.53;;;;;;;18.84;100.00;100588.06;5007460;28;20287;-53
2022/10/15 00:59:40;;;;;;;85.43;38.67;;;;;;;19.16;100.00;100587.25;5012978;28;20287;-53
2022/10/15 01:02:09;;;;;;;85.90;38.00;;;;;;;18.94;100.00;100591.94;5007723;28;20390;-50
2022/10/15 01:04:35;;;;;;;83.03;37.57;;;;;;;18.73;100.00;100584.44;5006302;28;20261;-54
2022/10/15 01:07:00;;;;;;;100.28;41.22;;;;;;;18.77;100.00;100590.16;5001424;28;20273;-55
2022/10/15 01:09:26;;;;;;;102.57;40.38;;;;;;;19.06;100.00;100584.47;5021932;28;20125;-52
2022/10/15 01:11:55;;;;;;;102.50;42.05;;;;;;;18.88;100.00;100582.94;4999365;28;20043;-54
2022/10/15 01:14:38;;;;;;;106.33;41.33;;;;;;;18.91;100.00;100583.25;5013079;28;20032;-54
2022/10/15 01:17:15;;;;;;;105.33;43.77;;;;;;;19.03;100.00;100580.38;5001435;28;20268;-54
2022/10/15 01:20:07;;;;;;;107.18;43.10;;;;;;;18.94;100.00;100579.22;5011816;28;20264;-52
2022/10/15 01:23:19;;;;;;;106.23;42.87;;;;;;;19.31;100.00;100574.91;5004474;28;20026;-56
2022/10/15 01:26:11;;;;;;;96.23;41.17;;;;;;;19.02;100.00;100569.78;5020387;28;20278;-53
2022/10/15 01:28:45;;;;;;;106.93;42.83;;;;;;;19.24;100.00;100569.69;5006858;28;20283;-53
2022/10/15 01:31:38;;;;;;;110.57;44.07;;;;;;;19.38;100.00;100558.41;5001435;28;20279;-51
2022/10/15 01:34:21;;;;;;;97.07;39.93;;;;;;;19.44;100.00;100562.78;4995170;28;20286;-53
2022/10/15 01:37:12;;;;;;;93.03;42.40;;;;;;;19.23;100.00;100556.41;5025262;28;21973;-55
2022/10/15 01:39:45;;;;;;;98.43;40.93;;;;;;;19.16;100.00;100559.34;5021604;28;20756;-49
2022/10/15 01:42:17;;;;;;;103.40;42.80;;;;;;;18.98;100.00;100561.38;5015289;28;20261;-52
2022/10/15 01:44:52;;;;;;;99.33;40.40;;;;;;;18.99;100.00;100564.91;5021572;28;20356;-53
2022/10/15 01:47:56;;;;;;;110.23;45.23;;;;;;;18.90;100.00;100564.53;4996050;28;20356;-50
2022/10/15 01:50:26;;;;;;;118.67;47.03;;;;;;;18.86;100.00;100558.81;5005447;28;20276;-49
2022/10/15 01:52:54;;;;;;;104.87;44.63;;;;;;;18.89;100.00;100552.88;5006602;28;20273;-50
2022/10/15 01:55:22;;;;;;;113.07;45.20;;;;;;;19.20;100.00;100557.75;5005188;28;20272;-52
2022/10/15 01:57:48;;;;;;;109.20;44.20;;;;;;;19.33;100.00;100546.44;5004050;28;20374;-51
2022/10/15 02:00:15;;;;;;;104.87;44.93;;;;;;;19.08;100.00;100555.22;5002505;28;20314;-49
2022/10/15 02:02:41;;;;;;;95.28;41.45;;;;;;;18.91;100.00;100547.19;5013654;28;20311;-46
2022/10/15 02:05:22;;;;;;;111.07;46.83;;;;;;;19.14;100.00;100556.06;5004077;28;20090;-49
2022/10/15 02:08:06;;;;;;;95.37;42.90;;;;;;;19.00;100.00;100553.81;5022306;28;20344;-51
2022/10/15 02:11:03;;;;;;;102.03;43.33;;;;;;;19.42;100.00;100549.47;5014739;28;20303;-52
2022/10/15 02:13:40;;;;;;;98.73;44.07;;;;;;;19.51;100.00;100540.88;4993734;28;20407;-54
2022/10/15 02:16:20;;;;;;;;;;;;;;;19.35;100.00;100538.84;5008009;28;20265;-51
2022/10/15 02:19:11;;;;;;;105.57;47.50;;;;;;;19.52;100.00;100535.16;5002559;28;19910;-49
2022/10/15 02:21:43;;;;;;;110.20;45.40;;;;;;;19.55;100.00;100531.94;5012257;28;20327;-50
2022/10/15 02:24:24;;;;;;;109.57;46.73;;;;;;;19.54;100.00;100530.28;5007284;28;20023;-49
2022/10/15 02:26:53;;;;;;;95.77;43.50;;;;;;;19.47;100.00;100527.00;4998601;28;20355;-48
2022/10/15 02:29:22;;;;;;;100.03;44.27;;;;;;;19.24;100.00;100529.03;5002398;28;20335;-51
2022/10/15 02:31:48;;;;;;;99.10;42.33;;;;;;;19.19;100.00;100526.31;5006896;28;20283;-49
2022/10/15 02:34:18;;;;;;;102.03;43.73;;;;;;;19.52;100.00;100516.19;5008836;28;20288;-50
2022/10/15 02:36:46;;;;;;;88.73;41.00;;;;;;;19.43;100.00;100518.56;4997810;28;20269;-52
2022/10/15 02:39:16;;;;;;;90.50;42.67;;;;;;;19.33;100.00;100508.47;5004518;28;20265;-47
2022/10/15 02:41:42;;;;;;;85.50;42.33;;;;;;;19.40;100.00;100513.69;5006260;28;20283;-52
2022/10/15 02:44:11;;;;;;;83.77;39.97;;;;;;;19.59;100.00;100513.25;5023417;28;20296;-48
2022/10/15 02:46:37;;;;;;;93.18;41.35;;;;;;;19.22;100.00;100493.25;5006673;28;20299;-47
2022/10/15 02:49:03;;;;;;;90.15;41.63;;;;;;;19.13;100.00;100502.94;5013972;28;20049;-51
2022/10/15 02:51:33;;;;;;;92.13;41.80;;;;;;;19.43;100.00;100501.50;5008320;28;20034;-52
2022/10/15 02:54:00;;;;;;;95.10;42.60;;;;;;;19.51;100.00;100489.34;5009184;28;20041;-47
2022/10/15 02:56:26;;;;;;;84.90;41.47;;;;;;;19.61;100.00;100482.06;5012659;28;20392;-51
2022/10/15 02:58:51;;;;;;;82.43;40.25;;;;;;;19.46;100.00;100490.13;5016646;28;20280;-53
2022/10/15 03:01:18;;;;;;;99.47;40.57;;;;;;;19.49;100.00;100481.47;5023829;28;20049;-48
2022/10/15 03:03:44;;;;;;;90.32;40.50;;;;;;;19.52;100.00;100480.13;5029744;28;20336;-53
2022/10/15 03:06:09;;;;;;;80.70;38.70;;;;;;;19.80;100.00;100476.16;5012174;28;20031;-50
2022/10/15 03:08:35;;;;;;;75.07;36.72;;;;;;;19.45;100.00;100472.22;5000158;28;20272;-51
2022/10/15 03:11:02;;;;;;;80.47;39.07;;;;;;;19.52;100.00;100478.22;5030174;28;20102;-51
2022/10/15 03:13:28;;;;;;;82.57;39.78;;;;;;;19.35;100.00;100473.78;5011203;28;20279;-52
2022/10/15 03:15:55;;;;;;;81.43;38.90;;;;;;;19.23;100.00;100478.63;5021237;28;20046;-50
2022/10/15 03:18:21;;;;;;;77.30;36.90;;;;;;;19.10;100.00;100470.94;5008675;28;20031;-53
2022/10/15 03:20:55;;;;;;;85.03;39.47;;;;;;;18.99;100.00;100470.06;5007520;28;20265;-52
2022/10/15 03:23:21;;;;;;;79.40;38.87;;;;;;;18.75;100.00;100465.81;4995505;28;20030;-49
2022/10/15 03:25:51;;;;;;;83.07;38.43;;;;;;;18.70;100.00;100454.94;4997503;28;20289;-51
2022/10/15 03:28:21;;;;;;;82.63;38.97;;;;;;;18.56;100.00;100456.47;4998370;28;20292;-53
2022/10/15 03:30:47;;;;;;;75.83;38.50;;;;;;;18.76;100.00;100455.78;5019307;28;20640;-52
2022/10/15 03:33:13;;;;;;;81.40;40.33;;;;;;;18.90;100.00;100446.13;5006756;28;20364;-49
2022/10/15 03:35:39;;;;;;;87.07;40.28;;;;;;;18.87;100.00;100445.84;5016276;28;20267;-53
2022/10/15 03:38:07;;;;;;;84.67;40.60;;;;;;;18.81;100.00;100452.31;4995000;28;20092;-51
2022/10/15 03:40:33;;;;;;;84.60;39.60;;;;;;;18.98;100.00;100450.28;5003035;28;20336;-50
2022/10/15 03:43:13;;;;;;;87.37;41.37;;;;;;;18.96;100.00;100447.00;5005473;28;20071;-50
2022/10/15 03:45:39;;;;;;;88.03;42.13;;;;;;;18.49;100.00;100460.19;5015619;28;20284;-51
2022/10/15 03:48:18;;;;;;;94.23;43.43;;;;;;;18.59;100.00;100462.19;5006947;28;20069;-52
2022/10/15 03:50:46;;;;;;;99.78;43.67;;;;;;;18.41;100.00;100462.56;4993608;28;20296;-48
2022/10/15 03:53:12;;;;;;;87.83;43.73;;;;;;;18.41;100.00;100460.66;4982456;28;20502;-51
2022/10/15 03:55:38;;;;;;;89.15;42.10;;;;;;;18.64;100.00;100455.97;4994202;28;20345;-53
2022/10/15 03:58:04;;;;;;;90.35;44.10;;;;;;;18.49;100.00;100453.97;4986576;28;20027;-50
2022/10/15 04:00:29;;;;;;;92.03;43.60;;;;;;;18.60;100.00;100457.56;4980454;28;20065;-49
2022/10/15 04:02:59;;;;;;;94.33;44.13;;;;;;;18.54;100.00;100458.59;4987555;28;20070;-49
2022/10/15 04:05:27;;;;;;;99.17;46.33;;;;;;;18.69;100.00;100463.31;4985887;28;20292;-51
2022/10/15 04:08:01;;;;;;;94.97;43.93;;;;;;;18.67;100.00;100463.56;4983198;28;20272;-50
2022/10/15 04:10:30;;;;;;;98.63;46.80;;;;;;;18.78;100.00;100457.16;4984278;28;20300;-52
2022/10/15 04:12:55;;;;;;;97.47;47.03;;;;;;;18.91;100.00;100463.19;4984161;28;20282;-52
2022/10/15 04:15:20;;;;;;;99.73;43.90;;;;;;;18.70;100.00;100476.63;4993363;28;20057;-54
2022/10/15 04:17:55;;;;;;;97.90;46.03;;;;;;;18.72;100.00;100471.75;4989854;28;20042;-52
2022/10/15 04:20:22;;;;;;;90.87;43.93;;;;;;;18.52;100.00;100477.00;4982096;28;20281;-53
2022/10/15 04:22:48;;;;;;;103.40;46.53;;;;;;;18.30;100.00;100475.97;4993862;28;20279;-50
2022/10/15 04:25:15;;;;;;;102.60;47.33;;;;;;;18.32;100.00;100483.88;4985261;28;20042;-48
2022/10/15 04:27:41;;;;;;;;;;;;;;;18.12;100.00;100484.50;4997046;28;20043;-52
2022/10/15 04:30:10;;;;;;;93.73;44.70;;;;;;;18.36;100.00;100489.59;4986771;28;19960;-54
2022/10/15 04:32:40;;;;;;;103.07;46.63;;;;;;;18.08;100.00;100484.16;4985740;28;20336;-48
2022/10/15 04:35:06;;;;;;;101.35;47.90;;;;;;;18.08;100.00;100489.56;4987724;28;20292;-54
2022/10/15 04:38:04;;;;;;;;;;;;;;;18.13;100.00;100492.34;5012705;28;20054;-50
2022/10/15 04:40:57;;;;;;;96.97;48.67;;;;;;;18.09;100.00;100490.38;4977305;28;19925;-51
2022/10/15 04:43:24;;;;;;;105.77;47.37;;;;;;;18.55;100.00;100484.59;4991992;28;20625;-53
2022/10/15 04:46:02;;;;;;;107.10;49.13;;;;;;;18.61;100.00;100487.09;4985735;28;20278;-53
2022/10/15 04:48:30;;;;;;;102.23;48.20;;;;;;;18.44;100.00;100489.91;4981474;28;20277;-52
2022/10/15 04:51:03;;;;;;;106.40;50.00;;;;;;;18.46;100.00;100485.09;4986838;28;20287;-49
2022/10/15 04:53:39;;;;;;;114.70;52.33;;;;;;;18.34;100.00;100481.72;4980961;28;20281;-53
2022/10/15 04:56:09;;;;;;;116.90;55.30;;;;;;;18.33;100.00;100491.72;4987933;28;20299;-50
2022/10/15 04:58:35;;;;;;;123.83;56.43;;;;;;;18.24;100.00;100487.03;4981743;28;20071;-49
2022/10/15 05:01:05;;;;;;;144.43;63.17;;;;;;;18.18;100.00;100481.56;4987879;28;20269;-52
2022/10/15 05:03:40;;;;;;;130.07;60.35;;;;;;;18.24;100.00;100481.63;4976993;28;20031;-51
2022/10/15 05:06:12;;;;;;;136.20;58.03;;;;;;;18.41;100.00;100476.91;4990020;28;20033;-51
2022/10/15 05:08:42;;;;;;;134.43;60.13;;;;;;;18.11;100.00;100477.44;4965144;28;20287;-53
2022/10/15 05:11:21;;;;;;;132.93;57.97;;;;;;;18.34;100.00;100479.00;4965405;28;20304;-51
2022/10/15 05:13:48;;;;;;;135.13;58.60;;;;;;;18.57;100.00;100479.75;4963694;28;20373;-49
2022/10/15 05:16:20;;;;;;;135.70;58.20;;;;;;;18.62;100.00;100482.50;4963446;28;20308;-51
2022/10/15 05:18:50;;;;;;;126.80;53.60;;;;;;;18.43;100.00;100485.56;4969482;28;20269;-53
2022/10/15 05:21:18;;;;;;;131.23;54.27;;;;;;;18.38;100.00;100482.81;4970433;28;20357;-48
2022/10/15 05:23:46;;;;;;;129.63;51.90;;;;;;;18.39;100.00;100489.88;4961997;28;20311;-50
2022/10/15 05:26:23;;;;;;;130.13;52.57;;;;;;;18.88;100.00;100493.53;4973404;28;20273;-52
2022/10/15 05:28:50;;;;;;;118.97;50.87;;;;;;;19.31;100.00;100494.38;4976637;28;20291;-48
2022/10/15 05:31:27;;;;;;;124.30;47.97;;;;;;;19.14;100.00;100488.31;4974220;28;20293;-52
2022/10/15 05:34:06;;;;;;;123.50;48.27;;;;;;;18.74;100.00;100485.03;4980700;28;20282;-47
2022/10/15 05:36:35;;;;;;;117.87;45.53;;;;;;;19.18;100.00;100481.31;4985097;28;20277;-53
2022/10/15 05:39:09;;;;;;;113.47;42.87;;;;;;;18.63;100.00;100492.25;4988430;28;20281;-51
2022/10/15 05:41:38;;;;;;;114.17;41.77;;;;;;;18.72;100.00;100489.88;4983378;28;20280;-50
2022/10/15 05:44:04;;;;;;;120.85;45.47;;;;;;;18.75;100.00;100498.31;4984611;28;20337;-51
2022/10/15 05:46:30;;;;;;;108.18;42.13;;;;;;;18.56;100.00;100488.94;4985591;28;20035;-50
2022/10/15 05:48:57;;;;;;;99.00;38.40;;;;;;;18.91;100.00;100477.56;4988460;28;20042;-50
2022/10/15 05:51:25;;;;;;;107.93;41.17;;;;;;;18.59;100.00;100496.56;4995053;28;20278;-51
2022/10/15 05:53:56;;;;;;;115.47;39.90;;;;;;;18.67;100.00;100495.28;5006969;28;20997;-53
2022/10/15 05:56:22;;;;;;;104.87;38.77;;;;;;;18.98;100.00;100481.94;5013250;28;20368;-50
2022/10/15 05:58:48;;;;;;;106.85;41.20;;;;;;;19.08;100.00;100484.78;5005276;28;20275;-53
2022/10/15 06:01:14;;;;;;;112.97;41.78;;;;;;;19.22;100.00;100482.41;5008389;28;20038;-53
2022/10/15 06:03:41;;;;;;;134.57;48.40;;;;;;;19.11;100.00;100478.81;5004365;28;20126;-52
2022/10/15 06:06:21;;;;;;;122.72;47.17;;;;;;;19.09;100.00;100470.13;5018720;28;20046;-53
2022/10/15 06:08:47;;;;;;;136.20;47.43;;;;;;;19.49;100.00;100470.63;4993252;28;20077;-50
2022/10/15 06:11:13;;;;;;;;;;;;;;;19.87;100.00;100474.03;5003062;28;20451;-52
2022/10/15 06:13:42;;;;;;;93.73;35.30;;;;;;;19.48;100.00;100471.69;5003824;28;19933;-49
2022/10/15 06:16:09;;;;;;;97.73;35.40;;;;;;;19.24;100.00;100469.41;5006834;28;20281;-53
2022/10/15 06:18:35;;;;;;;89.00;34.47;;;;;;;19.08;100.00;100467.69;4996127;28;20332;-49
2022/10/15 06:21:02;;;;;;;87.83;35.10;;;;;;;19.14;100.00;100467.44;5014459;28;20105;-50
2022/10/15 06:23:27;;;;;;;86.37;33.00;;;;;;;19.41;100.00;100473.84;5002027;28;20276;-50
2022/10/15 06:25:53;;;;;;;83.45;33.38;;;;;;;19.54;100.00;100472.53;5000001;28;20092;-47
2022/10/15 06:28:19;;;;;;;63.65;29.30;;;;;;;19.18;100.00;100470.47;5008473;28;20039;-52
2022/10/15 06:30:44;;;;;;;60.08;26.02;;;;;;;18.94;100.00;100470.84;4999981;28;20039;-49
2022/10/15 06:33:10;;;;;;;66.90;28.63;;;;;;;19.58;100.00;100469.00;5006878;28;20090;-50
2022/10/15 06:35:35;;;;;;;62.00;26.98;;;;;;;19.74;100.00;100466.38;5017269;28;20045;-50
2022/10/15 06:38:02;;;;;;;64.57;30.27;;;;;;;19.70;100.00;100463.34;5000403;28;20049;-51
2022/10/15 06:40:28;;;;;;;60.13;26.80;;;;;;;19.76;100.00;100466.91;5004622;28;20035;-50
2022/10/15 06:42:53;;;;;;;63.85;27.50;;;;;;;19.67;100.00;100469.31;5002155;28;20311;-52
2022/10/15 06:45:19;;;;;;;60.40;26.35;;;;;;;19.59;100.00;100470.63;5010423;28;20035;-52
2022/10/15 06:47:44;;;;;;;61.15;26.63;;;;;;;19.72;100.00;100477.50;4994303;28;20039;-53
2022/10/15 06:50:11;;;;;;;57.47;26.20;;;;;;;19.74;100.00;100469.09;5003906;28;20054;-53
2022/10/15 06:52:36;;;;;;;;;;;;;;;19.60;100.00;100474.19;5006945;28;20038;-49
2022/10/15 06:55:03;;;;;;;50.77;22.90;;;;;;;19.32;100.00;100471.59;4997899;28;19918;-48
2022/10/15 06:57:30;;;;;;;46.53;23.13;;;;;;;19.53;100.00;100469.00;5009902;28;20279;-53
2022/10/15 06:59:56;;;;;;;51.00;24.63;;;;;;;19.83;100.00;100478.31;5000568;28;20279;-53
2022/10/15 07:02:22;;;;;;;48.60;23.02;;;;;;;19.70;100.00;100474.22;5015071;28;20042;-54
2022/10/15 07:04:48;;;;;;;45.03;22.20;;;;;;;19.27;100.00;100487.84;5001121;28;20074;-49
2022/10/15 07:07:18;;;;;;;46.43;21.47;;;;;;;19.62;100.00;100483.69;4997732;28;20098;-53
2022/10/15 07:09:46;;;;;;;50.25;22.85;;;;;;;19.67;100.00;100479.38;5001170;28;20277;-50
2022/10/15 07:12:12;;;;;;;44.93;21.17;;;;;;;19.52;100.00;100485.56;5003254;28;20038;-51
2022/10/15 07:14:38;;;;;;;45.63;21.40;;;;;;;19.63;100.00;100489.94;5008031;28;20284;-52
2022/10/15 07:17:04;;;;;;;43.42;21.73;;;;;;;19.50;100.00;100499.38;5008627;28;20035;-54
2022/10/15 07:19:30;;;;;;;42.05;20.73;;;;;;;19.74;100.00;100497.03;5011166;28;20629;-52
2022/10/15 07:21:55;;;;;;;42.80;21.02;;;;;;;19.57;100.00;100501.84;4998322;28;20074;-52
2022/10/15 07:24:21;;;;;;;39.20;19.98;;;;;;;19.45;100.00;100499.34;5014002;28;20045;-51
2022/10/15 07:26:47;;;;;;;41.97;20.25;;;;;;;20.02;100.00;100486.00;5001974;28;20070;-49
2022/10/15 07:29:12;;;;;;;45.22;20.10;;;;;;;19.56;100.00;100478.50;5012591;28;20046;-49
2022/10/15 07:31:38;;;;;;;39.63;20.95;;;;;;;19.72;100.00;100469.38;5012799;28;20041;-49
2022/10/15 07:34:05;;;;;;;41.38;20.33;;;;;;;19.89;100.00;100471.03;5003568;28;20030;-52
2022/10/15 07:36:30;;;;;;;36.27;18.93;;;;;;;19.86;100.00;100464.25;5004042;28;20043;-51
2022/10/15 07:38:56;;;;;;;36.13;19.48;;;;;;;19.48;100.00;100469.78;5003591;28;20035;-48
2022/10/15 07:41:22;;;;;;;44.60;20.67;;;;;;;19.65;100.00;100465.25;5001261;28;20042;-49
2022/10/15 07:43:51;;;;;;;41.35;20.92;;;;;;;19.82;100.00;100470.47;4999452;28;20026;-52
2022/10/15 07:46:16;;;;;;;40.70;19.80;;;;;;;19.98;100.00;100466.75;5005139;28;20039;-52
2022/10/15 07:48:41;;;;;;;41.80;20.67;;;;;;;20.12;100.00;100467.06;5015324;28;20045;-48
2022/10/15 07:51:10;;;;;;;43.42;20.77;;;;;;;19.95;100.00;100464.53;5002886;28;20085;-50
2022/10/15 07:53:36;;;;;;;38.83;19.93;;;;;;;19.65;100.00;100462.56;4996589;28;20035;-51
2022/10/15 07:56:06;;;;;;;37.10;20.15;;;;;;;19.56;100.00;100463.03;4997567;28;20094;-49
2022/10/15 07:58:36;;;;;;;36.70;19.93;;;;;;;19.14;100.00;100466.63;4998743;28;20098;-52
2022/10/15 08:01:04;;;;;;;39.40;20.13;;;;;;;19.86;100.00;100464.25;4998300;28;20042;-52
2022/10/15 08:03:29;;;;;;;37.80;20.07;;;;;;;19.51;100.00;100468.44;4998897;28;20027;-53
2022/10/15 08:05:55;;;;;;;38.45;19.67;;;;;;;19.63;100.00;100465.50;4999324;28;20035;-51
2022/10/15 08:08:22;;;;;;;36.97;18.73;;;;;;;19.58;100.00;100451.94;4999704;28;20038;-47
2022/10/15 08:10:48;;;;;;;37.72;19.20;;;;;;;19.87;100.00;100452.31;4994885;28;20098;-51
2022/10/15 08:13:13;;;;;;;39.78;19.13;;;;;;;19.94;100.00;100457.50;4996566;28;20065;-53
2022/10/15 08:15:42;;;;;;;41.00;18.93;;;;;;;19.63;100.00;100457.38;4993477;28;20091;-49
2022/10/15 08:18:08;;;;;;;39.25;19.13;;;;;;;20.02;100.00;100445.31;4995433;28;20041;-50
2022/10/15 08:20:37;;;;;;;33.73;18.40;;;;;;;20.47;100.00;100453.78;4996552;28;20042;-51
2022/10/15 08:23:04;;;;;;;36.70;18.57;;;;;;;20.46;100.00;100444.00;4985013;28;20355;-51
2022/10/15 08:25:33;;;;;;;37.77;19.27;;;;;;;20.48;100.00;100449.97;4985960;28;20039;-52
2022/10/15 08:27:58;;;;;;;33.57;18.73;;;;;;;20.31;100.00;100444.81;4988628;28;20030;-54
2022/10/15 08:30:24;;;;;;;35.45;18.92;;;;;;;20.70;100.00;100446.97;4987958;28;20039;-51
2022/10/15 08:32:50;;;;;;;39.05;19.77;;;;;;;21.26;100.00;100441.72;4990310;28;20051;-53
2022/10/15 08:35:16;;;;;;;37.50;19.08;;;;;;;21.81;100.00;100443.69;4989244;28;20039;-55
2022/10/15 08:37:41;;;;;;;31.23;17.77;;;;;;;21.58;100.00;100435.88;4982093;28;20041;-53
2022/10/15 08:40:09;;;;;;;30.05;17.02;;;;;;;20.95;100.00;100431.72;4988341;28;20042;-52
2022/10/15 08:42:41;;;;;;;29.67;17.37;;;;;;;20.75;100.00;100433.38;4982538;28;20046;-52
2022/10/15 08:45:38;;;;;;;30.37;17.47;;;;;;;20.14;100.00;100429.59;4994997;28;20046;-52
2022/10/15 08:48:10;;;;;;;31.42;17.52;;;;;;;20.43;100.00;100434.47;4992437;28;20045;-51
2022/10/15 08:50:41;;;;;;;33.97;17.80;;;;;;;20.60;100.00;100426.06;5006299;28;21031;-51
2022/10/15 08:53:13;;;;;;;34.17;17.13;;;;;;;20.42;100.00;100418.47;4989060;28;20050;-50
2022/10/15 08:55:44;;;;;;;30.90;16.80;;;;;;;20.35;100.00;100424.19;4983217;28;20035;-50
2022/10/15 08:58:29;;;;;;;35.23;16.37;;;;;;;20.39;100.00;100422.53;4989468;28;20042;-51
2022/10/15 09:01:05;;;;;;;29.97;14.80;;;;;;;20.64;100.00;100415.47;4984724;28;20030;-49
2022/10/15 09:03:44;;;;;;;30.03;16.33;;;;;;;20.73;100.00;100419.25;4990715;28;20026;-53
2022/10/15 09:06:20;;;;;;;27.53;16.33;;;;;;;20.64;100.00;100418.19;4989322;28;20058;-51
2022/10/15 09:09:05;;;;;;;26.80;14.40;;;;;;;20.61;100.00;100405.16;4990137;28;20058;-49
2022/10/15 09:11:52;;;;;;;27.73;13.63;;;;;;;20.51;100.00;100403.25;4983376;28;20035;-51
2022/10/15 09:14:23;;;;;;;22.40;12.80;;;;;;;21.17;100.00;100400.69;4987472;28;20592;-51
2022/10/15 09:16:52;;;;;;;23.40;13.17;;;;;;;21.09;100.00;100391.19;4985840;28;20038;-53
2022/10/15 09:19:20;;;;;;;23.20;12.83;;;;;;;21.34;100.00;100389.47;4985333;28;20099;-53
2022/10/15 09:21:48;;;;;;;23.77;12.00;;;;;;;21.02;100.00;100396.94;4988320;28;20038;-53
2022/10/15 09:24:23;;;;;;;18.60;10.57;;;;;;;20.99;100.00;100386.63;4995274;28;20042;-52
2022/10/15 09:27:11;;;;;;;24.37;11.43;;;;;;;21.01;100.00;100398.03;4992338;28;20039;-50
2022/10/15 09:29:49;;;;;;;18.10;9.97;;;;;;;20.60;100.00;100398.09;4987018;28;20031;-53
2022/10/15 09:32:30;;;;;;;18.07;9.73;;;;;;;20.57;100.00;100398.63;4980426;28;20043;-49
2022/10/15 09:35:00;;;;;;;18.87;10.70;;;;;;;20.56;100.00;100391.56;4996433;28;20038;-50
2022/10/15 09:37:30;;;;;;;20.13;10.20;;;;;;;20.02;100.00;100382.88;4995820;28;20030;-51
2022/10/15 09:40:10;;;;;;;19.27;10.40;;;;;;;19.99;100.00;100372.56;4996497;28;20035;-51
2022/10/15 09:42:39;;;;;;;21.07;11.23;;;;;;;20.04;100.00;100369.84;4993653;28;20045;-51
2022/10/15 09:45:09;;;;;;;24.13;10.47;;;;;;;19.84;100.00;100373.34;4997821;28;20038;-50
2022/10/15 09:47:38;;;;;;;25.27;12.20;;;;;;;19.89;100.00;100376.88;4988942;28;20027;-49
2022/10/15 09:50:06;;;;;;;55.63;14.60;;;;;;;19.07;100.00;100380.16;4988948;28;20059;-52
2022/10/15 09:52:44;;;;;;;34.63;13.17;;;;;;;19.32;100.00;100368.59;4988028;28;20042;-54
2022/10/15 09:55:32;;;;;;;41.13;13.63;;;;;;;19.90;100.00;100347.84;4992132;28;20052;-54
2022/10/15 09:58:06;;;;;;;34.80;14.37;;;;;;;19.80;100.00;100354.06;4994386;28;20038;-50
2022/10/15 10:00:49;;;;;;;30.73;14.50;;;;;;;19.37;100.00;100359.66;4990260;28;20109;-56
2022/10/15 10:03:15;;;;;;;36.80;14.67;;;;;;;19.57;100.00;100360.81;4992341;28;20128;-53
2022/10/15 10:05:42;;;;;;;41.47;15.38;;;;;;;20.04;100.00;100356.28;4995657;28;20038;-54
2022/10/15 10:08:21;;;;;;;32.97;14.63;;;;;;;19.74;100.00;100352.44;4991029;28;20038;-53
2022/10/15 10:11:01;;;;;;;34.73;14.50;;;;;;;19.86;100.00;100347.56;5001885;28;20038;-52
2022/10/15 10:13:28;;;;;;;35.87;14.70;;;;;;;19.76;100.00;100347.53;4995751;28;20038;-55
2022/10/15 10:16:00;;;;;;;36.47;14.77;;;;;;;19.83;100.00;100347.28;4992878;28;20067;-55
2022/10/15 10:18:27;;;;;;;34.03;12.50;;;;;;;19.63;100.00;100344.28;4996849;28;20030;-51
2022/10/15 10:21:00;;;;;;;36.85;15.18;;;;;;;19.80;100.00;100348.63;4992022;28;20031;-55
2022/10/15 10:23:33;;;;;;;29.93;12.13;;;;;;;19.87;100.00;100349.19;4992023;28;20046;-55
2022/10/15 10:26:02;;;;;;;38.20;16.20;;;;;;;19.72;100.00;100341.88;4996902;28;20039;-52
2022/10/15 10:28:32;;;;;;;42.27;16.20;;;;;;;19.91;100.00;100349.50;4994780;28;20394;-55
2022/10/15 10:31:05;;;;;;;33.63;14.43;;;;;;;19.82;100.00;100346.47;4996331;28;20034;-55
2022/10/15 10:33:31;;;;;;;41.77;14.77;;;;;;;19.73;100.00;100343.50;5003561;28;20043;-56
2022/10/15 10:35:58;;;;;;;35.85;15.55;;;;;;;19.67;100.00;100346.47;4999064;28;20061;-53
2022/10/15 10:38:39;;;;;;;38.30;14.97;;;;;;;19.87;100.00;100349.19;5025660;28;20048;-51
2022/10/15 10:41:09;;;;;;;49.87;16.77;;;;;;;19.80;100.00;100351.34;4994954;28;20035;-51
2022/10/15 10:43:37;;;;;;;43.47;17.03;;;;;;;19.44;100.00;100343.16;4986977;28;20046;-54
2022/10/15 10:46:18;;;;;;;41.00;16.87;;;;;;;19.63;100.00;100352.44;4988963;28;20069;-52
2022/10/15 10:48:52;;;;;;;41.90;15.57;;;;;;;19.73;100.00;100348.91;4992580;28;20046;-52
2022/10/15 10:51:24;;;;;;;37.43;15.27;;;;;;;19.54;100.00;100348.59;4991807;28;20064;-50
2022/10/15 10:54:02;;;;;;;39.30;14.93;;;;;;;19.63;100.00;100354.31;4998274;28;20102;-50
2022/10/15 10:56:43;;;;;;;47.50;16.27;;;;;;;19.85;100.00;100343.25;4997122;28;20055;-50
2022/10/15 10:59:12;;;;;;;41.90;14.57;;;;;;;19.80;100.00;100351.34;4991148;28;20027;-53
2022/10/15 11:01:40;;;;;;;40.83;14.17;;;;;;;19.56;100.00;100343.72;4991192;28;20031;-54
2022/10/15 11:04:12;;;;;;;32.60;13.65;;;;;;;20.09;100.00;100334.59;4996217;28;20088;-57
2022/10/15 11:07:10;;;;;;;39.73;16.10;;;;;;;19.97;100.00;100342.16;4999502;28;20034;-53
2022/10/15 11:10:07;;;;;;;38.10;14.47;;;;;;;20.19;100.00;100334.56;4978369;28;20085;-51
2022/10/15 11:13:01;;;;;;;31.30;14.23;;;;;;;20.30;100.00;100329.94;4987717;28;20033;-54
2022/10/15 11:15:35;;;;;;;36.07;14.57;;;;;;;20.10;100.00;100330.78;4990778;28;20065;-54
2022/10/15 11:18:09;;;;;;;34.13;14.70;;;;;;;20.33;100.00;100323.16;4995577;28;20046;-56